Jackie Gonsoulin — WDE3014 — position and weather

sailwx.info

Track history (hours):
 
Tides and Currents Weather Stations Pressure Air Temp Water Temp Dewpoint Dewpoint Depression Visibility Wind Speed Wind Dir Waves Ship Positions

Jackie Gonsoulin

Owner: LeBeouf Bros. Towing, LLC, Houma, LA. More information available from US FCC via Universal Licensing System and Coast Guard Vessel Documentation Center.

Last reported at 2017-Sep-21 11:10 UTC. Time now 2017-Sep-21 12:24 UTC.
Position N 29°37' W 090°21'.

Length 23 m.

Type: Tug. MMSI: 367332930.

Date/timePositionNaut miles runAvg speedWind from/ knotsBaromVisibWave heightAir tempDewpointWater temp
2017-Sep-21 11:10N 29°37' W 090°21'5 4.6
2017-Sep-21 10:09N 29°33' W 090°24'1 5.0
2017-Sep-21 10:00N 29°33' W 090°25'3 5.3
2017-Sep-21 09:29N 29°33' W 090°28'3 5.2
2017-Sep-21 09:00N 29°34' W 090°31'3 5.2
2017-Sep-21 08:30N 29°34' W 090°34'1 2.6
2017-Sep-21 08:00N 29°35' W 090°35'0 0.0
2017-Sep-21 07:30N 29°35' W 090°35'1 2.0
2017-Sep-21 07:00N 29°35' W 090°36'2 4.9
2017-Sep-21 06:30N 29°36' W 090°39'2 4.6
2017-Sep-21 06:00N 29°36' W 090°41'1 2.7
2017-Sep-21 05:30N 29°36' W 090°43'2 4.2
2017-Sep-21 05:00N 29°34' W 090°43'2 4.3
2017-Sep-21 04:30N 29°33' W 090°45'0 0.5
2017-Sep-21 04:00N 29°32' W 090°46'2 4.3
2017-Sep-21 03:30N 29°32' W 090°48'4 5.8
2017-Sep-21 02:47N 29°32' W 090°53'59 4.6
2017-Sep-20 13:59N 29°50' W 091°58'2 5.2
2017-Sep-20 13:30N 29°50' W 092°00'3 5.3
2017-Sep-20 13:00N 29°49' W 092°03'2 4.9
2017-Sep-20 12:30N 29°48' W 092°06'3 5.6
2017-Sep-20 12:00N 29°47' W 092°09'2 4.7
2017-Sep-20 11:30N 29°47' W 092°11'2 4.5
2017-Sep-20 11:00N 29°48' W 092°14'3 5.2
2017-Sep-20 10:30N 29°49' W 092°17'4 4.7
2017-Sep-20 09:37N 29°51' W 092°21'33 4.9
2017-Sep-20 02:48N 29°56' W 092°59'2 5.0
2017-Sep-20 02:27N 29°56' W 093°01'2 5.0
2017-Sep-20 02:00N 29°56' W 093°03'2 4.4
2017-Sep-20 01:30N 29°56' W 093°06'2 4.9
2017-Sep-20 01:00N 29°56' W 093°08'2 4.6
2017-Sep-20 00:30N 29°57' W 093°11'2 5.0
2017-Sep-20 00:00N 29°59' W 093°13'2 4.1
2017-Sep-19 23:30N 30°01' W 093°14'2 3.3
2017-Sep-19 23:00N 30°02' W 093°15'2 4.4
2017-Sep-19 22:30N 30°04' W 093°16'2 3.5
2017-Sep-19 22:00N 30°05' W 093°18'1 2.5
2017-Sep-19 21:30N 30°06' W 093°19'0 0.1
2017-Sep-19 21:00N 30°06' W 093°19'0 0.0
2017-Sep-19 20:30N 30°06' W 093°19'0 0.0
2017-Sep-19 20:00N 30°06' W 093°19'0 0.0
2017-Sep-19 19:30N 30°06' W 093°19'1 1.4
2017-Sep-19 19:00N 30°06' W 093°19'2 3.9
2017-Sep-19 18:30N 30°04' W 093°21'2 3.8
2017-Sep-19 18:00N 30°04' W 093°23'2 3.5
2017-Sep-19 17:30N 30°04' W 093°25'3 5.6
2017-Sep-19 17:00N 30°04' W 093°28'3 5.8
2017-Sep-19 16:30N 30°04' W 093°31'3 5.7
2017-Sep-19 16:00N 30°04' W 093°35'3 6.0
2017-Sep-19 15:30N 30°04' W 093°38'73 4.6
2017-Sep-18 23:35N 29°29' W 094°52'1 6.9
2017-Sep-18 23:28N 29°30' W 094°52'3 7.0
2017-Sep-18 23:00N 29°32' W 094°54'3 6.9
2017-Sep-18 22:30N 29°35' W 094°56'4 7.2
2017-Sep-18 22:00N 29°38' W 094°58'3 6.9
2017-Sep-18 21:30N 29°42' W 094°59'2 3.6
2017-Sep-18 21:00N 29°42' W 095°01'0 0.6
2017-Sep-18 20:29N 29°42' W 095°02'1 2.0
2017-Sep-18 20:00N 29°43' W 095°03'0 0.1
2017-Sep-18 19:30N 29°42' W 095°03'0 0.0
2017-Sep-18 19:00N 29°43' W 095°03'0 0.0
2017-Sep-18 18:30N 29°43' W 095°03'0 0.0
2017-Sep-18 18:00N 29°43' W 095°03'0 0.0
2017-Sep-18 17:30N 29°43' W 095°03'0 0.0
2017-Sep-18 17:00N 29°43' W 095°03'0 0.0
2017-Sep-18 16:30N 29°43' W 095°03'0 0.0
2017-Sep-18 16:00N 29°43' W 095°03'0 0.0
2017-Sep-18 15:30N 29°43' W 095°03'0 0.0
2017-Sep-18 15:00N 29°43' W 095°03'0 0.0
2017-Sep-18 14:30N 29°43' W 095°03'0 0.0
2017-Sep-18 14:00N 29°43' W 095°03'0 0.0
2017-Sep-18 13:30N 29°43' W 095°03'0 0.0
2017-Sep-18 13:00N 29°43' W 095°03'0 0.0
2017-Sep-18 12:30N 29°43' W 095°03'0 0.0
2017-Sep-18 12:00N 29°43' W 095°03'0 0.0
2017-Sep-18 11:30N 29°43' W 095°03'0 0.0
2017-Sep-18 11:00N 29°43' W 095°03'0 0.0
2017-Sep-18 10:30N 29°43' W 095°03'0 0.2
2017-Sep-18 09:59N 29°43' W 095°03'0 0.2
2017-Sep-18 09:30N 29°43' W 095°03'1 2.3
2017-Sep-18 09:00N 29°42' W 095°01'2 3.2
2017-Sep-18 08:30N 29°42' W 094°60'3 6.1
2017-Sep-18 08:00N 29°39' W 094°58'3 6.2
2017-Sep-18 07:30N 29°36' W 094°57'4 6.7
2017-Sep-18 06:55N 29°33' W 094°54'51 1.8
2017-Sep-17 03:28N 29°49' W 093°59'0 0.0
2017-Sep-17 03:00N 29°49' W 093°59'  
2017-Sep-13 03:24N 29°60' W 093°55'3 4.7
2017-Sep-13 02:51N 30°01' W 093°57'4 0.3
2017-Sep-12 14:02N 30°02' W 094°02'0 0.0
2017-Sep-12 14:00N 30°02' W 094°02'  
Track history (hours):
 
Tides and Currents Weather Stations Pressure Air Temp Water Temp Dewpoint Dewpoint Depression Visibility Wind Speed Wind Dir Waves Ship Positions

Jackie Gonsoulin

Owner: LeBeouf Bros. Towing, LLC, Houma, LA. More information available from US FCC via Universal Licensing System and Coast Guard Vessel Documentation Center.

Last reported at 2017-Sep-21 11:10 UTC. Time now 2017-Sep-21 12:24 UTC.
Position N 29°37' W 090°21'.

Length 23 m.

Type: Tug. MMSI: 367332930.

Date/timePositionNaut miles runAvg speedWind from/ knotsBaromVisibWave heightAir tempDewpointWater temp
2017-Sep-21 11:10N 29°37' W 090°21'5 4.6
2017-Sep-21 10:09N 29°33' W 090°24'1 5.0
2017-Sep-21 10:00N 29°33' W 090°25'3 5.3
2017-Sep-21 09:29N 29°33' W 090°28'3 5.2
2017-Sep-21 09:00N 29°34' W 090°31'3 5.2
2017-Sep-21 08:30N 29°34' W 090°34'1 2.6
2017-Sep-21 08:00N 29°35' W 090°35'0 0.0
2017-Sep-21 07:30N 29°35' W 090°35'1 2.0
2017-Sep-21 07:00N 29°35' W 090°36'2 4.9
2017-Sep-21 06:30N 29°36' W 090°39'2 4.6
2017-Sep-21 06:00N 29°36' W 090°41'1 2.7
2017-Sep-21 05:30N 29°36' W 090°43'2 4.2
2017-Sep-21 05:00N 29°34' W 090°43'2 4.3
2017-Sep-21 04:30N 29°33' W 090°45'0 0.5
2017-Sep-21 04:00N 29°32' W 090°46'2 4.3
2017-Sep-21 03:30N 29°32' W 090°48'4 5.8
2017-Sep-21 02:47N 29°32' W 090°53'59 4.6
2017-Sep-20 13:59N 29°50' W 091°58'2 5.2
2017-Sep-20 13:30N 29°50' W 092°00'3 5.3
2017-Sep-20 13:00N 29°49' W 092°03'2 4.9
2017-Sep-20 12:30N 29°48' W 092°06'3 5.6
2017-Sep-20 12:00N 29°47' W 092°09'2 4.7
2017-Sep-20 11:30N 29°47' W 092°11'2 4.5
2017-Sep-20 11:00N 29°48' W 092°14'3 5.2
2017-Sep-20 10:30N 29°49' W 092°17'4 4.7
2017-Sep-20 09:37N 29°51' W 092°21'33 4.9
2017-Sep-20 02:48N 29°56' W 092°59'2 5.0
2017-Sep-20 02:27N 29°56' W 093°01'2 5.0
2017-Sep-20 02:00N 29°56' W 093°03'2 4.4
2017-Sep-20 01:30N 29°56' W 093°06'2 4.9
2017-Sep-20 01:00N 29°56' W 093°08'2 4.6
2017-Sep-20 00:30N 29°57' W 093°11'2 5.0
2017-Sep-20 00:00N 29°59' W 093°13'2 4.1
2017-Sep-19 23:30N 30°01' W 093°14'2 3.3
2017-Sep-19 23:00N 30°02' W 093°15'2 4.4
2017-Sep-19 22:30N 30°04' W 093°16'2 3.5
2017-Sep-19 22:00N 30°05' W 093°18'1 2.5
2017-Sep-19 21:30N 30°06' W 093°19'0 0.1
2017-Sep-19 21:00N 30°06' W 093°19'0 0.0
2017-Sep-19 20:30N 30°06' W 093°19'0 0.0
2017-Sep-19 20:00N 30°06' W 093°19'0 0.0
2017-Sep-19 19:30N 30°06' W 093°19'1 1.4
2017-Sep-19 19:00N 30°06' W 093°19'2 3.9
2017-Sep-19 18:30N 30°04' W 093°21'2 3.8
2017-Sep-19 18:00N 30°04' W 093°23'2 3.5
2017-Sep-19 17:30N 30°04' W 093°25'3 5.6
2017-Sep-19 17:00N 30°04' W 093°28'3 5.8
2017-Sep-19 16:30N 30°04' W 093°31'3 5.7
2017-Sep-19 16:00N 30°04' W 093°35'3 6.0
2017-Sep-19 15:30N 30°04' W 093°38'73 4.6
2017-Sep-18 23:35N 29°29' W 094°52'1 6.9
2017-Sep-18 23:28N 29°30' W 094°52'3 7.0
2017-Sep-18 23:00N 29°32' W 094°54'3 6.9
2017-Sep-18 22:30N 29°35' W 094°56'4 7.2
2017-Sep-18 22:00N 29°38' W 094°58'3 6.9
2017-Sep-18 21:30N 29°42' W 094°59'2 3.6
2017-Sep-18 21:00N 29°42' W 095°01'0 0.6
2017-Sep-18 20:29N 29°42' W 095°02'1 2.0
2017-Sep-18 20:00N 29°43' W 095°03'0 0.1
2017-Sep-18 19:30N 29°42' W 095°03'0 0.0
2017-Sep-18 19:00N 29°43' W 095°03'0 0.0
2017-Sep-18 18:30N 29°43' W 095°03'0 0.0
2017-Sep-18 18:00N 29°43' W 095°03'0 0.0
2017-Sep-18 17:30N 29°43' W 095°03'0 0.0
2017-Sep-18 17:00N 29°43' W 095°03'0 0.0
2017-Sep-18 16:30N 29°43' W 095°03'0 0.0
2017-Sep-18 16:00N 29°43' W 095°03'0 0.0
2017-Sep-18 15:30N 29°43' W 095°03'0 0.0
2017-Sep-18 15:00N 29°43' W 095°03'0 0.0
2017-Sep-18 14:30N 29°43' W 095°03'0 0.0
2017-Sep-18 14:00N 29°43' W 095°03'0 0.0
2017-Sep-18 13:30N 29°43' W 095°03'0 0.0
2017-Sep-18 13:00N 29°43' W 095°03'0 0.0
2017-Sep-18 12:30N 29°43' W 095°03'0 0.0
2017-Sep-18 12:00N 29°43' W 095°03'0 0.0
2017-Sep-18 11:30N 29°43' W 095°03'0 0.0
2017-Sep-18 11:00N 29°43' W 095°03'0 0.0
2017-Sep-18 10:30N 29°43' W 095°03'0 0.2
2017-Sep-18 09:59N 29°43' W 095°03'0 0.2
2017-Sep-18 09:30N 29°43' W 095°03'1 2.3
2017-Sep-18 09:00N 29°42' W 095°01'2 3.2
2017-Sep-18 08:30N 29°42' W 094°60'3 6.1
2017-Sep-18 08:00N 29°39' W 094°58'3 6.2
2017-Sep-18 07:30N 29°36' W 094°57'4 6.7
2017-Sep-18 06:55N 29°33' W 094°54'51 1.8
2017-Sep-17 03:28N 29°49' W 093°59'0 0.0
2017-Sep-17 03:00N 29°49' W 093°59'  
2017-Sep-13 03:24N 29°60' W 093°55'3 4.7
2017-Sep-13 02:51N 30°01' W 093°57'4 0.3
2017-Sep-12 14:02N 30°02' W 094°02'0 0.0
2017-Sep-12 14:00N 30°02' W 094°02'  

Dump ship's entire track history